Missoula, MT

10:06 AM MST on March 03, 2015 (GMT -0700)
Rose Park | Change Station
CLOSE
Current Station
Personal Weather Station
Location: Missoula, MT
Elevation: 3210 ft
Nearby Weather Stations
Active Advisory: Winter Weather Statement

Elev 3210 ft 46.86 °N, 114.01 °W | Updated 14 seconds ago

Clear
Clear
19.5 °F
Feels Like 10 °F
N
8.0
Wind Variable Wind from NE
Gusts 11.0 mph

Today
High -- | Low -- °F
--% Chance of Precip.
Yesterday
High -- | Low -- °F
Precip. -- in
7:12 AM 6:24 PM
Waxing Gibbous, 96% visible
Pressure 30.30 in
Visibility 10.0 miles
Clouds Clear
Windchill 10 °F
Dew Point 2 °F
Humidity 46%
Rainfall 0.00 in
Snow Depth Not available.
UV 2 out of 12
Pollen .50 out of 12
Air Quality Not available.
Flu Activity Not available.
METAR KMSO 031653Z 11014KT 10SM CLR M07/M18 A3016 RMK AO2 SLP260 T10721178

More Conditions Fewer Conditions

Pressure 30.30 in
Visibility 10.0 miles
Clouds Clear
Windchill 10 °F
Dew Point 2 °F
Humidity 46%
Rainfall 0.00 in
Snow Depth Not available.
UV 2 out of 12
Pollen .50 out of 12
Air Quality Not available.
Flu Activity Not available.
METAR KMSO 031653Z 11014KT 10SM CLR M07/M18 A3016 RMK AO2 SLP260 T10721178

More Conditions Fewer Conditions

10-Day Weather Forecast

Almanac

Astronomy

Mar. 03, 2015 Rise Set
Actual Time
Civil Twilight
Nautical Twilight
Astronomical Twilight
Moon
Length of Visible Light
Length of Day
Tomorrow will be .
, % of the Moon is Illuminated

Today's Extremes

State Highs State Lows

Community

WunderPhotos

Upload Photos

1,802,172 photos uploaded!

WunderBlogs® & News

Nearby

Air Quality

  Air Quality AQ Index Pollutant
Not available.

Snow Depth

Station Depth Elevation

Earthquake Activity

City Distance Mag. Time & Date
Minimum magnitude displayed is 2.5.

Coastal Water Temperatures

Place Temperature

Nearby Weather Stations

Winter Weather Statement
Statement as of 10:03 AM MST on March 03, 2015

... Winter Weather Advisory is cancelled...

The National Weather Service in Missoula has cancelled the Winter
Weather Advisory.

The sun has started to melt area roadways this morning.